createdAt,value
2022-11-27T00:01:46.504Z,34.25
2022-11-27T00:04:51.336Z,43.05
2022-11-27T00:07:56.269Z,37.60
2022-11-27T00:11:10.481Z,39.08
2022-11-27T00:14:17.188Z,43.60
2022-11-27T00:17:22.311Z,41.28
2022-11-27T00:20:29.705Z,43.63
2022-11-27T00:23:35.439Z,43.25
2022-11-27T00:26:40.226Z,41.33
2022-11-27T00:29:44.801Z,34.90
2022-11-27T00:32:49.850Z,36.15
2022-11-27T00:35:55.081Z,41.10
2022-11-27T00:39:00.560Z,41.00
2022-11-27T00:42:10.220Z,40.80
2022-11-27T00:45:18.872Z,36.30
2022-11-27T00:48:24.167Z,39.25
2022-11-27T00:51:38.222Z,33.60
2022-11-27T00:54:46.192Z,36.28
2022-11-27T00:57:51.581Z,27.45
2022-11-27T01:01:05.796Z,19.60
2022-11-27T01:04:15.695Z,15.98
2022-11-27T01:07:20.752Z,16.48
2022-11-27T01:10:25.462Z,15.50
2022-11-27T01:13:36.796Z,12.45
2022-11-27T01:16:43.329Z,14.40
2022-11-27T01:19:49.211Z,11.57
2022-11-27T01:22:53.833Z,11.15
2022-11-27T01:26:01.939Z,11.32
2022-11-27T01:29:06.856Z,9.20
2022-11-27T01:32:12.225Z,9.82
2022-11-27T01:35:17.356Z,6.55
2022-11-27T01:38:23.242Z,11.00
2022-11-27T01:41:35.149Z,9.02
2022-11-27T01:44:50.092Z,14.32
2022-11-27T01:48:01.046Z,11.30
2022-11-27T01:51:07.042Z,8.57
2022-11-27T01:54:11.769Z,8.68
2022-11-27T01:57:26.799Z,7.57
2022-11-27T02:00:32.417Z,9.02
2022-11-27T02:03:37.656Z,8.20
2022-11-27T02:06:42.490Z,15.05
2022-11-27T02:09:47.452Z,10.65
2022-11-27T02:13:21.878Z,12.25
2022-11-27T02:17:38.448Z,12.55
2022-11-27T02:21:01.560Z,11.05
2022-11-27T02:24:47.519Z,9.80
2022-11-27T02:28:27.241Z,8.63
2022-11-27T02:31:58.855Z,10.52
2022-11-27T02:35:20.555Z,10.38
2022-11-27T02:38:31.526Z,13.27
2022-11-27T02:42:04.906Z,10.90
2022-11-27T02:45:15.400Z,11.32
2022-11-27T02:48:25.330Z,12.85
2022-11-27T02:51:39.934Z,16.58
2022-11-27T02:54:46.616Z,12.77
2022-11-27T02:57:54.615Z,12.27
2022-11-27T03:00:59.820Z,12.65
2022-11-27T03:04:11.432Z,13.00
2022-11-27T03:07:33.685Z,17.35
2022-11-27T03:11:05.129Z,12.27
2022-11-27T03:14:10.865Z,15.00
2022-11-27T03:17:26.757Z,17.65
2022-11-27T03:20:37.206Z,21.15
2022-11-27T03:23:42.743Z,25.50
2022-11-27T03:26:47.955Z,23.90
2022-11-27T03:29:58.144Z,27.08
2022-11-27T03:33:03.097Z,26.50
2022-11-27T03:36:14.158Z,23.60
2022-11-27T03:39:20.310Z,22.75
2022-11-27T03:43:00.154Z,26.85
2022-11-27T03:46:11.218Z,29.30
2022-11-27T03:49:43.035Z,29.48
2022-11-27T03:53:12.778Z,25.85
2022-11-27T03:56:42.010Z,25.17
2022-11-27T03:59:49.429Z,25.30
2022-11-27T04:02:54.373Z,26.65
2022-11-27T04:05:59.677Z,21.20
2022-11-27T04:09:05.284Z,25.52
2022-11-27T04:12:10.244Z,23.38
2022-11-27T04:15:15.091Z,24.00
2022-11-27T04:18:20.210Z,18.15
2022-11-27T04:21:25.048Z,18.20
2022-11-27T04:24:30.388Z,15.88
2022-11-27T04:27:35.272Z,15.35
2022-11-27T04:30:40.244Z,13.75
2022-11-27T04:33:45.382Z,12.70
2022-11-27T04:36:50.656Z,12.55
2022-11-27T04:39:56.109Z,11.40
2022-11-27T04:43:01.471Z,10.70
2022-11-27T04:46:15.051Z,11.57
2022-11-27T04:49:20.447Z,14.98
2022-11-27T04:52:25.263Z,12.35
2022-11-27T04:55:31.695Z,14.38
2022-11-27T04:58:37.244Z,19.17
2022-11-27T05:01:42.511Z,14.85
2022-11-27T05:04:48.083Z,12.63
2022-11-27T05:07:57.447Z,15.60
2022-11-27T05:11:12.793Z,14.65
2022-11-27T05:14:18.195Z,18.55
2022-11-27T05:17:23.715Z,19.05
2022-11-27T05:20:29.529Z,15.32
2022-11-27T05:23:37.681Z,14.48
2022-11-27T05:26:43.423Z,16.08
2022-11-27T05:29:48.151Z,15.77
2022-11-27T05:32:53.274Z,16.17
2022-11-27T05:35:58.076Z,15.82
2022-11-27T05:39:08.937Z,14.40
2022-11-27T05:42:15.813Z,15.35
2022-11-27T05:45:20.484Z,19.40
2022-11-27T05:48:25.279Z,16.88
2022-11-27T05:51:30.029Z,16.23
2022-11-27T05:54:34.877Z,17.00
2022-11-27T05:57:39.777Z,16.25
2022-11-27T06:00:45.331Z,19.15
2022-11-27T06:03:50.130Z,14.55
2022-11-27T06:06:54.962Z,14.23
2022-11-27T06:10:00.029Z,13.13
2022-11-27T06:13:05.257Z,13.43
2022-11-27T06:16:20.118Z,12.55
2022-11-27T06:19:25.997Z,15.57
2022-11-27T06:22:31.250Z,13.25
2022-11-27T06:25:36.467Z,10.85
2022-11-27T06:28:43.889Z,14.15
2022-11-27T06:31:49.396Z,13.98
2022-11-27T06:34:54.057Z,13.35
2022-11-27T06:38:00.207Z,12.23
2022-11-27T06:41:09.197Z,12.20
2022-11-27T06:44:14.152Z,6.75
2022-11-27T06:47:18.697Z,13.48
2022-11-27T06:50:23.540Z,8.90
2022-11-27T06:53:30.510Z,9.43
2022-11-27T06:56:35.303Z,9.80
2022-11-27T06:59:40.152Z,8.25
2022-11-27T07:02:44.992Z,12.30
2022-11-27T07:05:49.826Z,9.35
2022-11-27T07:08:55.300Z,6.65
2022-11-27T07:12:00.387Z,8.95
2022-11-27T07:15:08.030Z,10.60
2022-11-27T07:18:13.289Z,4.75
2022-11-27T07:21:19.618Z,3.92
2022-11-27T07:24:24.983Z,5.15
2022-11-27T07:27:30.496Z,5.13
2022-11-27T07:30:35.154Z,7.00
2022-11-27T07:33:40.617Z,7.72
2022-11-27T07:36:46.384Z,5.35
2022-11-27T07:40:02.397Z,6.43
2022-11-27T07:43:08.729Z,8.68
2022-11-27T07:46:21.562Z,12.43
2022-11-27T07:49:27.585Z,12.00
2022-11-27T07:52:41.619Z,11.00
2022-11-27T07:55:48.153Z,14.13
2022-11-27T07:59:01.276Z,10.38
2022-11-27T08:02:06.571Z,8.05
2022-11-27T08:05:13.177Z,4.97
2022-11-27T08:08:22.171Z,48.33
2022-11-27T08:11:31.374Z,7.50
2022-11-27T08:14:36.316Z,3.75
2022-11-27T08:17:41.276Z,6.03
2022-11-27T08:20:46.352Z,6.13
2022-11-27T08:23:51.294Z,8.40
2022-11-27T08:26:56.932Z,8.55
2022-11-27T08:30:02.094Z,6.75
2022-11-27T08:33:09.550Z,11.55
2022-11-27T08:36:18.171Z,10.57
2022-11-27T08:39:23.812Z,10.63
2022-11-27T08:42:29.756Z,11.98
2022-11-27T08:45:34.669Z,18.27
2022-11-27T08:48:39.791Z,19.08
2022-11-27T08:51:44.880Z,20.77
2022-11-27T08:54:53.189Z,23.63
2022-11-27T08:58:02.519Z,18.17
2022-11-27T09:01:19.739Z,15.65
2022-11-27T09:04:25.110Z,15.75
2022-11-27T09:07:30.037Z,17.00
2022-11-27T09:10:34.632Z,8.98
2022-11-27T09:13:40.323Z,13.68
2022-11-27T09:16:45.308Z,12.57
2022-11-27T09:19:50.517Z,13.25
2022-11-27T09:22:55.571Z,8.05
2022-11-27T09:26:02.616Z,7.63
2022-11-27T09:29:07.722Z,6.72
2022-11-27T09:32:13.239Z,7.15
2022-11-27T09:35:18.197Z,6.15
2022-11-27T09:38:23.810Z,10.85
2022-11-27T09:41:49.311Z,6.90
2022-11-27T09:45:17.360Z,8.95
2022-11-27T09:48:39.482Z,9.27
2022-11-27T09:51:51.310Z,16.38
2022-11-27T09:55:32.228Z,12.85
2022-11-27T09:58:43.153Z,19.73
2022-11-27T10:01:51.077Z,21.20
2022-11-27T10:05:13.368Z,10.60
2022-11-27T10:08:44.553Z,17.23
2022-11-27T10:12:15.533Z,3.53
2022-11-27T10:15:40.002Z,3.63
2022-11-27T10:18:52.026Z,3.42
2022-11-27T10:22:21.978Z,3.55
2022-11-27T10:25:41.370Z,4.75
2022-11-27T10:28:59.949Z,3.90
2022-11-27T10:32:46.786Z,8.70
2022-11-27T10:35:41.276Z,8.20
2022-11-27T10:38:46.451Z,7.50
2022-11-27T10:42:17.392Z,9.95
2022-11-27T10:45:50.883Z,9.90
2022-11-27T10:48:56.136Z,11.43
2022-11-27T10:52:00.995Z,11.13
2022-11-27T10:55:17.523Z,12.43
2022-11-27T10:58:37.114Z,15.05
2022-11-27T11:01:48.352Z,13.65
2022-11-27T11:05:16.226Z,13.57
2022-11-27T11:08:20.386Z,18.30
2022-11-27T11:11:26.616Z,13.82
2022-11-27T11:14:31.205Z,20.10
2022-11-27T11:17:38.001Z,18.55
2022-11-27T11:20:48.302Z,19.33
2022-11-27T11:24:03.343Z,18.23
2022-11-27T11:27:17.718Z,15.45
2022-11-27T11:30:29.190Z,16.27
2022-11-27T11:33:59.395Z,17.38
2022-11-27T11:37:08.249Z,16.63
2022-11-27T11:40:16.100Z,23.00
2022-11-27T11:43:35.546Z,17.98
2022-11-27T11:46:41.347Z,20.63
2022-11-27T11:49:47.094Z,21.27
2022-11-27T11:53:01.702Z,23.23
2022-11-27T11:56:32.321Z,15.40
2022-11-27T12:00:14.955Z,15.15
2022-11-27T12:03:44.392Z,15.98
2022-11-27T12:07:36.688Z,17.90
2022-11-27T12:10:56.861Z,16.80
2022-11-27T12:14:41.533Z,6.57
2022-11-27T12:18:17.426Z,19.33
2022-11-27T12:21:48.204Z,17.77
2022-11-27T12:25:02.104Z,21.92
2022-11-27T12:28:47.331Z,20.80
2022-11-27T12:32:05.273Z,16.90
2022-11-27T12:35:21.989Z,19.05
2022-11-27T12:38:42.678Z,19.75
2022-11-27T12:42:00.641Z,23.33
2022-11-27T12:45:27.780Z,22.63
2022-11-27T12:48:59.570Z,22.30
2022-11-27T12:52:24.244Z,20.05
2022-11-27T12:55:31.550Z,21.33
2022-11-27T12:58:44.761Z,22.58
2022-11-27T13:02:13.344Z,23.23
2022-11-27T13:05:23.888Z,18.27
2022-11-27T13:08:58.727Z,18.95
2022-11-27T13:12:04.552Z,19.45
2022-11-27T13:16:01.209Z,21.73
2022-11-27T13:19:19.184Z,23.15
2022-11-27T13:22:32.015Z,21.77
2022-11-27T13:25:44.540Z,23.20
2022-11-27T13:28:59.555Z,17.90
2022-11-27T13:32:06.597Z,21.48
2022-11-27T13:35:42.525Z,24.00
2022-11-27T13:38:57.049Z,23.05
2022-11-27T13:42:07.488Z,26.35
2022-11-27T13:45:24.289Z,24.88
2022-11-27T13:48:36.953Z,27.95
2022-11-27T13:51:42.546Z,25.55
2022-11-27T13:55:01.537Z,21.73
2022-11-27T13:58:08.079Z,21.75
2022-11-27T14:01:20.083Z,16.95
2022-11-27T14:04:27.279Z,19.83
2022-11-27T14:07:46.739Z,17.90
2022-11-27T14:11:11.701Z,21.63
2022-11-27T14:14:22.397Z,16.70
2022-11-27T14:17:38.174Z,18.67
2022-11-27T14:20:52.810Z,18.60
2022-11-27T14:23:57.923Z,26.73
2022-11-27T14:27:25.214Z,19.80
2022-11-27T14:30:35.535Z,22.08
2022-11-27T14:34:13.531Z,19.90
2022-11-27T14:37:28.302Z,22.85
2022-11-27T14:40:33.312Z,24.27
2022-11-27T14:43:38.238Z,28.30
2022-11-27T14:46:43.332Z,26.40
2022-11-27T14:49:56.275Z,29.83
2022-11-27T14:53:01.345Z,30.60
2022-11-27T14:56:06.179Z,31.50
2022-11-27T14:59:18.238Z,27.92
2022-11-27T15:02:29.587Z,29.88
2022-11-27T15:05:37.647Z,36.10
2022-11-27T15:09:03.045Z,37.47
2022-11-27T15:12:28.749Z,32.33
2022-11-27T15:15:41.598Z,34.47
2022-11-27T15:18:54.314Z,30.85
2022-11-27T15:21:59.596Z,33.10
2022-11-27T15:25:07.663Z,30.60
2022-11-27T15:28:39.660Z,25.05
2022-11-27T15:31:51.308Z,24.85
2022-11-27T15:34:56.532Z,31.95
2022-11-27T15:38:10.562Z,26.23
2022-11-27T15:41:27.582Z,27.55
2022-11-27T15:44:33.019Z,26.13
2022-11-27T15:47:39.328Z,27.38
2022-11-27T15:50:51.358Z,26.05
2022-11-27T15:53:57.032Z,21.98
2022-11-27T15:57:02.055Z,22.88
2022-11-27T16:00:09.933Z,24.35
2022-11-27T16:03:18.224Z,19.08
2022-11-27T16:06:25.776Z,25.02
2022-11-27T16:09:30.952Z,26.27
2022-11-27T16:12:36.362Z,33.33
2022-11-27T16:15:42.261Z,36.10
2022-11-27T16:18:47.324Z,29.70
2022-11-27T16:21:52.734Z,20.02
2022-11-27T16:24:57.728Z,19.38
2022-11-27T16:28:03.444Z,27.17
2022-11-27T16:31:13.497Z,63.80
2022-11-27T16:34:18.584Z,103.35
2022-11-27T16:37:25.029Z,40.92
2022-11-27T16:40:34.964Z,37.58
2022-11-27T16:43:43.923Z,39.35
2022-11-27T16:46:49.154Z,36.85
2022-11-27T16:49:53.733Z,32.38
2022-11-27T16:52:58.756Z,27.63
2022-11-27T16:56:05.660Z,31.83
2022-11-27T16:59:14.322Z,35.15
2022-11-27T17:02:20.082Z,38.13
2022-11-27T17:05:25.378Z,39.45
2022-11-27T17:08:30.453Z,39.05
2022-11-27T17:11:37.213Z,42.03
2022-11-27T17:14:43.925Z,42.03
2022-11-27T17:17:50.037Z,42.17
2022-11-27T17:21:03.185Z,79.53
2022-11-27T17:24:15.423Z,77.07
2022-11-27T17:27:23.627Z,59.25
2022-11-27T17:30:29.368Z,59.70
2022-11-27T17:33:34.508Z,60.75
2022-11-27T17:36:42.004Z,61.92
2022-11-27T17:39:47.855Z,64.97
2022-11-27T17:42:54.109Z,71.70
2022-11-27T17:45:59.594Z,79.60
2022-11-27T17:49:07.427Z,65.85
2022-11-27T17:52:12.338Z,65.30
2022-11-27T17:55:18.461Z,56.67
2022-11-27T17:58:24.628Z,68.60
2022-11-27T18:01:30.659Z,68.35
2022-11-27T18:04:36.377Z,65.72
2022-11-27T18:07:41.908Z,69.55
2022-11-27T18:10:47.649Z,67.70
2022-11-27T18:13:52.714Z,73.47
2022-11-27T18:17:04.088Z,66.03
2022-11-27T18:20:09.416Z,63.20
2022-11-27T18:23:15.519Z,65.60
2022-11-27T18:26:30.157Z,72.25
2022-11-27T18:29:45.404Z,69.30
2022-11-27T18:32:50.604Z,72.80
2022-11-27T18:35:56.148Z,75.28
2022-11-27T18:39:03.680Z,67.63
2022-11-27T18:42:08.499Z,69.93
2022-11-27T18:45:31.660Z,70.93
2022-11-27T18:48:39.156Z,68.00
2022-11-27T18:51:45.032Z,72.30
2022-11-27T18:54:50.981Z,76.00
2022-11-27T18:57:55.891Z,71.22
2022-11-27T19:01:07.978Z,73.38
2022-11-27T19:04:14.945Z,71.53
2022-11-27T19:07:21.002Z,56.65
2022-11-27T19:10:25.831Z,51.15
2022-11-27T19:13:32.214Z,50.83
2022-11-27T19:16:44.759Z,53.40
2022-11-27T19:19:54.324Z,48.72
2022-11-27T19:23:00.019Z,46.53
2022-11-27T19:26:10.903Z,45.03
2022-11-27T19:29:16.747Z,49.38
2022-11-27T19:32:21.891Z,52.28
2022-11-27T19:35:26.876Z,57.40
2022-11-27T19:38:32.757Z,58.08
2022-11-27T19:41:38.246Z,50.88
2022-11-27T19:44:43.720Z,50.58
2022-11-27T19:47:49.694Z,52.95
2022-11-27T19:51:01.504Z,62.08
2022-11-27T19:54:10.422Z,75.85
2022-11-27T19:57:16.890Z,89.22
2022-11-27T20:00:22.055Z,105.30
2022-11-27T20:03:27.541Z,98.13
2022-11-27T20:06:32.667Z,98.00
2022-11-27T20:09:37.510Z,103.07
2022-11-27T20:12:43.179Z,112.88
2022-11-27T20:15:48.228Z,91.05
2022-11-27T20:18:53.313Z,94.30
2022-11-27T20:21:59.155Z,73.20
2022-11-27T20:25:19.002Z,66.75
2022-11-27T20:28:25.036Z,61.90
2022-11-27T20:31:33.228Z,60.05
2022-11-27T20:34:38.105Z,53.75
2022-11-27T20:37:43.445Z,53.47
2022-11-27T20:40:49.713Z,46.00
2022-11-27T20:44:01.834Z,41.28
2022-11-27T20:47:08.959Z,41.60
2022-11-27T20:50:14.201Z,40.47
2022-11-27T20:53:19.714Z,40.30
2022-11-27T20:56:25.613Z,39.35
2022-11-27T20:59:31.462Z,55.25
2022-11-27T21:02:41.045Z,79.05
2022-11-27T21:05:48.147Z,71.80
2022-11-27T21:08:53.751Z,71.93
2022-11-27T21:11:59.023Z,76.25
2022-11-27T21:15:05.774Z,72.80
2022-11-27T21:18:11.198Z,63.38
2022-11-27T21:21:16.554Z,66.22
2022-11-27T21:24:23.641Z,57.30
2022-11-27T21:27:29.249Z,50.28
2022-11-27T21:30:34.390Z,38.72
2022-11-27T21:33:39.780Z,38.05
2022-11-27T21:36:45.511Z,37.90
2022-11-27T21:39:51.809Z,38.72
2022-11-27T21:42:57.183Z,37.47
2022-11-27T21:46:17.635Z,63.70
2022-11-27T21:49:23.268Z,72.88
2022-11-27T21:52:31.111Z,89.65
2022-11-27T21:55:43.576Z,80.85
2022-11-27T21:58:48.456Z,74.53
2022-11-27T22:01:56.904Z,82.13
2022-11-27T22:05:01.766Z,77.78
2022-11-27T22:08:06.704Z,70.40
2022-11-27T22:11:14.918Z,68.50
2022-11-27T22:14:19.888Z,66.95
2022-11-27T22:17:25.365Z,62.90
2022-11-27T22:20:31.434Z,61.58
2022-11-27T22:23:37.358Z,40.75
2022-11-27T22:26:42.699Z,45.22
2022-11-27T22:29:47.726Z,38.78
2022-11-27T22:32:54.105Z,36.97
2022-11-27T22:35:59.073Z,61.83
2022-11-27T22:39:07.634Z,57.08
2022-11-27T22:42:13.355Z,58.35
2022-11-27T22:45:18.201Z,65.53
2022-11-27T22:48:23.248Z,72.45
2022-11-27T22:51:31.064Z,63.88
2022-11-27T22:54:36.600Z,70.53
2022-11-27T22:57:41.522Z,68.13
2022-11-27T23:00:46.598Z,70.63
2022-11-27T23:03:52.697Z,66.90
2022-11-27T23:06:58.084Z,35.88
2022-11-27T23:10:03.624Z,36.10
2022-11-27T23:13:09.377Z,29.77
2022-11-27T23:16:14.942Z,27.52
2022-11-27T23:19:19.731Z,32.83
2022-11-27T23:22:24.651Z,28.42
2022-11-27T23:25:30.817Z,19.58
2022-11-27T23:28:36.618Z,17.98
2022-11-27T23:31:41.860Z,17.55
2022-11-27T23:34:47.121Z,20.98
2022-11-27T23:37:51.906Z,12.55
2022-11-27T23:41:06.825Z,13.40
2022-11-27T23:44:11.646Z,15.85
2022-11-27T23:47:16.996Z,17.13
2022-11-27T23:50:22.158Z,15.98
2022-11-27T23:53:28.412Z,23.38
2022-11-27T23:56:33.735Z,22.60
2022-11-27T23:59:39.084Z,37.58
